Time;durP1;ratioP1;P1;durP2;ratioP2;P2;SDS_P1;SDS_P2;PMS_P1;PMS_P2;Temp;Humidity;BMP_temperature;BMP_pressure;BME280_temperature;BME280_humidity;BME280_pressure;Samples;Min_cycle;Max_cycle;Signal;HPM_P1;HPM_P2
2024/01/10 00:00:32;;;;;;;14.65;8.55;;;-2.70;99.90;;;;;;5060783;28;20052;-63
2024/01/10 00:02:58;;;;;;;11.60;8.32;;;-2.70;99.90;;;;;;5060467;28;20040;-63
2024/01/10 00:05:24;;;;;;;12.88;8.57;;;-2.70;99.90;;;;;;5061057;28;20052;-63
2024/01/10 00:07:49;;;;;;;12.25;8.00;;;-2.70;99.90;;;;;;5060653;28;20052;-63
2024/01/10 00:10:16;;;;;;;15.30;7.88;;;-2.70;99.90;;;;;;5042229;28;20053;-62
2024/01/10 00:12:44;;;;;;;13.50;8.20;;;-2.70;99.90;;;;;;5043523;28;20045;-63
2024/01/10 00:15:10;;;;;;;13.38;7.72;;;-2.80;99.90;;;;;;5060866;28;20050;-63
2024/01/10 00:17:35;;;;;;;15.98;8.50;;;-2.80;99.90;;;;;;5061478;28;20510;-63
2024/01/10 00:20:01;;;;;;;14.63;8.80;;;-2.90;99.90;;;;;;5060228;28;20032;-63
2024/01/10 00:22:27;;;;;;;11.02;8.05;;;-2.90;99.90;;;;;;5060565;28;20048;-62
2024/01/10 00:24:52;;;;;;;14.15;8.48;;;-2.90;99.90;;;;;;5042304;28;20051;-63
2024/01/10 00:27:18;;;;;;;14.93;8.82;;;-2.90;99.90;;;;;;5041578;28;20052;-63
2024/01/10 00:29:44;;;;;;;12.48;8.43;;;-3.00;99.90;;;;;;5060986;28;20044;-63
2024/01/10 00:32:10;;;;;;;16.30;8.75;;;-3.00;99.90;;;;;;5035364;28;20109;-63
2024/01/10 00:34:35;;;;;;;13.75;7.35;;;-3.00;99.90;;;;;;5055795;28;20064;-63
2024/01/10 00:37:02;;;;;;;12.68;7.43;;;-3.00;99.90;;;;;;5062313;28;20047;-63
2024/01/10 00:39:28;;;;;;;12.75;8.30;;;-3.10;99.90;;;;;;5045095;28;20524;-63
2024/01/10 00:41:54;;;;;;;12.90;8.20;;;-3.10;99.90;;;;;;5062241;28;20040;-63
2024/01/10 00:44:19;;;;;;;10.10;7.57;;;-3.10;99.90;;;;;;5040340;28;20542;-63
2024/01/10 00:46:45;;;;;;;15.05;8.13;;;-3.20;99.90;;;;;;5045264;28;20045;-63
2024/01/10 00:49:11;;;;;;;16.42;8.73;;;-3.20;99.90;;;;;;5060416;28;20047;-62
2024/01/10 00:51:37;;;;;;;11.98;7.82;;;-3.20;99.90;;;;;;5045263;28;20434;-63
2024/01/10 00:54:02;;;;;;;15.73;8.95;;;-3.20;99.90;;;;;;5058855;28;20477;-63
2024/01/10 00:56:28;;;;;;;13.85;8.75;;;-3.20;99.90;;;;;;5063930;28;20048;-63
2024/01/10 00:58:57;;;;;;;16.13;8.35;;;-3.20;99.90;;;;;;5043377;28;20117;-63
2024/01/10 01:01:24;;;;;;;15.30;8.63;;;-3.20;99.90;;;;;;5042458;28;20098;-63
2024/01/10 01:03:50;;;;;;;12.65;7.60;;;-3.20;99.90;;;;;;5060334;28;20044;-63
2024/01/10 01:06:16;;;;;;;11.20;7.78;;;-3.20;99.90;;;;;;5062924;28;20510;-63
2024/01/10 01:08:41;;;;;;;15.25;7.85;;;-3.20;99.90;;;;;;5055860;28;20041;-63
2024/01/10 01:11:07;;;;;;;12.10;7.60;;;-3.20;99.90;;;;;;5061385;28;20467;-63
2024/01/10 01:13:33;;;;;;;14.27;8.07;;;-3.20;99.90;;;;;;5035677;28;20041;-63
2024/01/10 01:15:59;;;;;;;11.88;6.85;;;-3.20;99.90;;;;;;5060160;28;20048;-63
2024/01/10 01:18:24;;;;;;;16.15;7.80;;;-3.20;99.90;;;;;;5061387;28;20056;-63
2024/01/10 01:20:51;;;;;;;13.55;7.45;;;-3.20;99.90;;;;;;5074609;28;20143;-62
2024/01/10 01:23:16;;;;;;;11.73;6.80;;;-3.10;99.90;;;;;;5064622;28;20505;-63
2024/01/10 01:25:42;;;;;;;14.90;9.13;;;-3.00;99.90;;;;;;5038975;28;20041;-63
2024/01/10 01:28:08;;;;;;;11.18;7.05;;;-3.00;99.90;;;;;;5032218;28;20099;-63
2024/01/10 01:30:34;;;;;;;12.57;8.23;;;-2.90;99.90;;;;;;5044146;28;20055;-62
2024/01/10 01:32:59;;;;;;;11.98;7.95;;;-2.90;99.90;;;;;;5064366;28;20044;-63
2024/01/10 01:35:25;;;;;;;12.77;8.38;;;-2.90;99.90;;;;;;5064168;28;20052;-62
2024/01/10 01:37:51;;;;;;;13.38;8.43;;;-2.90;99.90;;;;;;5057438;28;20080;-63
2024/01/10 01:40:18;;;;;;;17.80;10.43;;;-2.90;99.90;;;;;;5066507;28;20090;-63
2024/01/10 01:42:48;;;;;;;18.20;10.25;;;-2.90;99.90;;;;;;5037428;28;20511;-62
2024/01/10 01:45:13;;;;;;;15.68;10.20;;;-2.90;99.90;;;;;;5067113;28;20123;-63
2024/01/10 01:47:40;;;;;;;18.20;10.45;;;-2.90;99.90;;;;;;5045408;28;20136;-63
2024/01/10 01:50:07;;;;;;;15.85;10.35;;;-3.00;99.90;;;;;;5036235;28;20581;-63
2024/01/10 01:52:34;;;;;;;17.80;9.93;;;-3.00;99.90;;;;;;5058400;28;20101;-62
2024/01/10 01:55:01;;;;;;;14.00;10.10;;;-3.00;99.90;;;;;;5040997;28;20495;-63
2024/01/10 01:57:27;;;;;;;16.05;9.98;;;-3.00;99.90;;;;;;5064569;28;20523;-62
2024/01/10 01:59:52;;;;;;;18.17;10.60;;;-3.00;99.90;;;;;;5038519;28;20132;-63
2024/01/10 02:02:24;;;;;;;15.63;10.27;;;-3.00;99.90;;;;;;5061970;28;20062;-63
2024/01/10 02:04:50;;;;;;;16.63;10.88;;;-3.10;99.90;;;;;;5063848;28;20582;-63
2024/01/10 02:07:16;;;;;;;15.40;9.73;;;-3.10;99.90;;;;;;5061153;28;20069;-63
2024/01/10 02:09:42;;;;;;;15.60;10.55;;;-3.10;99.90;;;;;;5028665;28;20348;-63
2024/01/10 02:12:08;;;;;;;16.00;8.90;;;-3.20;99.90;;;;;;5062171;28;20067;-63
2024/01/10 02:14:34;;;;;;;18.63;10.98;;;-3.10;99.90;;;;;;5034421;28;20148;-62
2024/01/10 02:17:00;;;;;;;17.80;9.90;;;-3.10;99.90;;;;;;5058737;28;20075;-63
2024/01/10 02:19:27;;;;;;;17.83;10.98;;;-3.20;99.90;;;;;;5066340;28;20119;-63
2024/01/10 02:21:53;;;;;;;17.33;10.90;;;-3.20;99.90;;;;;;5069584;28;20530;-63
2024/01/10 02:24:18;;;;;;;16.70;9.63;;;-3.20;99.90;;;;;;5074972;28;20052;-63
2024/01/10 02:26:44;;;;;;;15.15;10.48;;;-3.30;99.90;;;;;;5063662;28;20048;-63
2024/01/10 02:29:10;;;;;;;15.20;9.45;;;-3.30;99.90;;;;;;5063055;28;20123;-63
2024/01/10 02:31:36;;;;;;;16.13;10.13;;;-3.40;99.90;;;;;;5059224;28;20436;-63
2024/01/10 02:34:01;;;;;;;15.23;9.85;;;-3.40;99.90;;;;;;5045333;28;20466;-63
2024/01/10 02:36:27;;;;;;;18.90;10.90;;;-3.40;99.90;;;;;;5062335;28;20075;-63
2024/01/10 02:38:53;;;;;;;19.90;10.77;;;-3.30;99.90;;;;;;5036892;28;20060;-63
2024/01/10 02:41:18;;;;;;;17.90;10.90;;;-3.30;99.90;;;;;;5041263;28;20122;-63
2024/01/10 02:43:44;;;;;;;13.52;9.55;;;-3.40;99.90;;;;;;5063759;28;20041;-63
2024/01/10 02:46:10;;;;;;;17.75;11.15;;;-3.30;99.90;;;;;;5058749;28;20154;-63
2024/01/10 02:48:36;;;;;;;19.17;9.90;;;-3.40;99.90;;;;;;5062580;28;20044;-63
2024/01/10 02:51:01;;;;;;;16.23;9.48;;;-3.30;99.90;;;;;;5062980;28;20121;-63
2024/01/10 02:53:27;;;;;;;16.23;10.20;;;-3.20;99.90;;;;;;5063134;28;20525;-63
2024/01/10 02:55:53;;;;;;;15.82;9.75;;;-3.20;99.90;;;;;;5062588;28;20127;-63
2024/01/10 02:58:21;;;;;;;15.40;9.13;;;-3.10;99.90;;;;;;5062834;28;20040;-63
2024/01/10 03:00:46;;;;;;;17.02;9.15;;;-3.00;99.90;;;;;;5037612;28;20049;-63
2024/01/10 03:03:12;;;;;;;15.18;8.02;;;-3.00;99.90;;;;;;5062145;28;20067;-63
2024/01/10 03:05:39;;;;;;;14.95;9.15;;;-3.00;99.90;;;;;;5045060;28;20064;-63
2024/01/10 03:08:06;;;;;;;13.98;8.77;;;-3.00;99.90;;;;;;5054427;28;20452;-63
2024/01/10 03:10:32;;;;;;;20.27;9.57;;;-3.00;99.90;;;;;;5045675;28;20045;-63
2024/01/10 03:12:57;;;;;;;16.35;9.65;;;-2.90;99.90;;;;;;5082684;28;20048;-63
2024/01/10 03:15:23;;;;;;;19.02;10.25;;;-2.90;99.90;;;;;;5058216;28;20048;-63
2024/01/10 03:17:49;;;;;;;15.35;9.90;;;-2.90;99.90;;;;;;5043928;28;20043;-63
2024/01/10 03:20:15;;;;;;;17.98;10.18;;;-3.00;99.90;;;;;;5060799;28;20044;-63
2024/01/10 03:22:40;;;;;;;14.15;8.85;;;-2.90;99.90;;;;;;5062348;28;20071;-63
2024/01/10 03:25:08;;;;;;;16.23;9.98;;;-3.00;99.90;;;;;;5096594;23;20495;-63
2024/01/10 03:27:33;;;;;;;14.07;8.48;;;-3.00;99.90;;;;;;5001732;28;20085;-63
2024/01/10 03:29:59;;;;;;;15.10;10.02;;;-3.00;99.90;;;;;;5004388;28;20033;-63
2024/01/10 03:32:25;;;;;;;14.63;10.23;;;-3.00;99.90;;;;;;5001966;28;20538;-63
2024/01/10 03:34:51;;;;;;;18.67;10.13;;;-3.00;99.90;;;;;;5003881;28;20046;-63
2024/01/10 03:37:17;;;;;;;17.58;9.98;;;-3.00;99.90;;;;;;5002996;28;20559;-63
2024/01/10 03:39:42;;;;;;;18.23;10.65;;;-3.00;99.90;;;;;;4984645;28;20061;-63
2024/01/10 03:42:10;;;;;;;19.20;10.18;;;-2.90;99.90;;;;;;4986609;28;20431;-63
2024/01/10 03:44:36;;;;;;;16.33;9.80;;;-2.90;99.90;;;;;;5001182;28;20038;-63
2024/01/10 03:47:02;;;;;;;14.30;9.15;;;-2.90;99.90;;;;;;5003623;28;20046;-63
2024/01/10 03:49:28;;;;;;;13.73;8.75;;;-2.90;99.90;;;;;;4982471;28;20353;-63
2024/01/10 03:51:54;;;;;;;15.55;10.13;;;-3.00;99.90;;;;;;4993322;28;20053;-63
2024/01/10 03:54:19;;;;;;;20.17;9.45;;;-3.00;99.90;;;;;;5002290;28;20050;-63
2024/01/10 03:56:45;;;;;;;18.02;8.60;;;-3.10;99.90;;;;;;5002770;28;20030;-63
2024/01/10 03:59:11;;;;;;;13.57;8.90;;;-3.10;99.90;;;;;;5000885;28;20512;-63
2024/01/10 04:01:39;;;;;;;16.77;9.18;;;-3.10;99.90;;;;;;5001442;28;20629;-63
2024/01/10 04:04:05;;;;;;;14.23;9.23;;;-3.20;99.90;;;;;;5003050;28;20404;-63
2024/01/10 04:06:31;;;;;;;13.02;8.43;;;-3.10;99.90;;;;;;4983234;28;20498;-63
2024/01/10 04:08:56;;;;;;;14.20;7.55;;;-3.20;99.90;;;;;;5003437;28;20098;-64
2024/01/10 04:11:22;;;;;;;14.27;8.93;;;-3.10;99.90;;;;;;4983049;28;20582;-63
2024/01/10 04:13:48;;;;;;;14.60;7.32;;;-3.10;99.90;;;;;;5003627;28;20116;-63
2024/01/10 04:16:13;;;;;;;15.13;8.52;;;-3.10;99.90;;;;;;4984884;28;20053;-63
2024/01/10 04:18:39;;;;;;;15.30;7.72;;;-3.10;99.90;;;;;;5002217;28;20551;-63
2024/01/10 04:21:05;;;;;;;16.10;8.98;;;-3.10;99.90;;;;;;5001620;28;20046;-63
2024/01/10 04:23:33;;;;;;;15.98;8.63;;;-3.10;99.90;;;;;;5001709;28;20145;-62
2024/01/10 04:25:58;;;;;;;9.73;6.53;;;-3.20;99.90;;;;;;5002489;28;20066;-62
2024/01/10 04:28:24;;;;;;;14.40;8.13;;;-3.20;99.90;;;;;;4983791;28;20092;-62
2024/01/10 04:30:50;;;;;;;13.32;8.43;;;-3.20;99.90;;;;;;4984937;28;20065;-62
2024/01/10 04:33:15;;;;;;;15.77;7.90;;;-3.20;99.90;;;;;;4983960;28;20041;-63
2024/01/10 04:35:42;;;;;;;15.93;8.93;;;-3.20;99.90;;;;;;5001563;28;20052;-62
2024/01/10 04:38:08;;;;;;;11.32;7.75;;;-3.10;99.90;;;;;;5003361;28;20050;-62
2024/01/10 04:40:34;;;;;;;13.45;7.40;;;-3.20;99.90;;;;;;5001024;28;20057;-63
2024/01/10 04:43:00;;;;;;;11.32;8.23;;;-3.10;99.90;;;;;;4999263;28;20064;-63
2024/01/10 04:45:25;;;;;;;12.05;8.18;;;-3.20;99.90;;;;;;5000610;28;20050;-63
2024/01/10 04:47:51;;;;;;;12.15;7.93;;;-3.30;99.90;;;;;;5002874;28;20060;-63
2024/01/10 04:50:17;;;;;;;13.35;7.78;;;-3.30;99.90;;;;;;5001035;28;20041;-62
2024/01/10 04:52:42;;;;;;;16.42;8.55;;;-3.40;99.90;;;;;;5002585;28;20141;-62
2024/01/10 04:55:08;;;;;;;16.73;8.63;;;-3.40;99.90;;;;;;5001975;28;20041;-63
2024/01/10 04:57:35;;;;;;;17.23;8.30;;;-3.50;99.90;;;;;;4988080;28;20527;-62
2024/01/10 05:00:02;;;;;;;11.90;8.23;;;-3.50;99.90;;;;;;4988679;28;20046;-63
2024/01/10 05:02:28;;;;;;;13.82;8.30;;;-3.50;99.90;;;;;;4964660;28;20169;-63
2024/01/10 05:04:54;;;;;;;18.65;9.23;;;-3.40;99.90;;;;;;5002788;28;20527;-63
2024/01/10 05:07:20;;;;;;;14.27;9.23;;;-3.40;99.90;;;;;;4971552;28;20049;-62
2024/01/10 05:09:46;;;;;;;14.90;8.18;;;-3.40;99.90;;;;;;5005832;28;20395;-63
2024/01/10 05:12:12;;;;;;;15.45;9.25;;;-3.40;99.90;;;;;;5005449;28;20088;-63
2024/01/10 05:14:38;;;;;;;16.23;9.15;;;-3.40;99.90;;;;;;5004996;28;20502;-63
2024/01/10 05:17:04;;;;;;;15.68;10.25;;;-3.40;99.90;;;;;;5006737;28;20042;-62
2024/01/10 05:19:30;;;;;;;14.48;9.73;;;-3.40;99.90;;;;;;5003868;28;20038;-63
2024/01/10 05:21:56;;;;;;;15.75;9.45;;;-3.40;99.90;;;;;;4989093;28;20060;-63
2024/01/10 05:24:22;;;;;;;14.77;9.70;;;-3.30;99.90;;;;;;4998347;28;20124;-62
2024/01/10 05:26:51;;;;;;;16.88;9.57;;;-3.30;99.90;;;;;;5005277;28;20054;-63
2024/01/10 05:29:19;;;;;;;14.93;9.73;;;-3.30;99.90;;;;;;5005011;28;20045;-63
2024/01/10 05:31:46;;;;;;;13.50;9.65;;;-3.40;99.90;;;;;;4988647;28;20279;-63
2024/01/10 05:34:12;;;;;;;15.75;9.93;;;-3.40;99.90;;;;;;5004880;28;20069;-63
2024/01/10 05:36:37;;;;;;;15.10;9.02;;;-3.40;99.90;;;;;;4970432;28;20081;-63
2024/01/10 05:39:03;;;;;;;13.65;8.57;;;-3.40;99.90;;;;;;5006174;28;20042;-62
2024/01/10 05:41:29;;;;;;;13.98;8.73;;;-3.40;99.90;;;;;;4970521;28;20499;-63
2024/01/10 05:43:55;;;;;;;13.50;8.73;;;-3.40;99.90;;;;;;5002611;28;20085;-63
2024/01/10 05:46:20;;;;;;;19.98;10.07;;;-3.40;99.90;;;;;;5004006;28;20128;-62
2024/01/10 05:48:46;;;;;;;16.17;9.65;;;-3.30;99.90;;;;;;5005667;28;20348;-63
2024/01/10 05:51:12;;;;;;;15.15;8.77;;;-3.40;99.90;;;;;;5005163;28;20056;-62
2024/01/10 05:53:38;;;;;;;14.38;8.80;;;-3.30;99.90;;;;;;4986999;28;20040;-63
2024/01/10 05:56:06;;;;;;;14.00;9.02;;;-3.30;99.90;;;;;;4986790;28;20061;-63
2024/01/10 05:58:32;;;;;;;13.80;8.88;;;-3.30;99.90;;;;;;5003388;28;20069;-63
2024/01/10 06:00:57;;;;;;;15.48;7.88;;;-3.30;99.90;;;;;;4993325;28;20045;-63
2024/01/10 06:03:24;;;;;;;14.52;8.45;;;-3.30;99.90;;;;;;5003739;28;20053;-63
2024/01/10 06:05:50;;;;;;;15.35;8.18;;;-3.20;99.90;;;;;;5004241;28;20125;-62
2024/01/10 06:08:16;;;;;;;16.48;8.25;;;-3.20;99.90;;;;;;5004488;28;20180;-63
2024/01/10 06:10:41;;;;;;;13.48;8.38;;;-3.10;99.90;;;;;;5004390;28;20053;-63
2024/01/10 06:13:07;;;;;;;17.00;8.63;;;-3.10;99.90;;;;;;4987755;28;20038;-63
2024/01/10 06:15:33;;;;;;;15.13;8.13;;;-3.10;99.90;;;;;;4985342;28;20061;-62
2024/01/10 06:17:59;;;;;;;13.85;8.75;;;-3.10;99.90;;;;;;5005905;28;20049;-63
2024/01/10 06:20:24;;;;;;;15.73;8.38;;;-3.10;99.90;;;;;;5003165;28;20042;-63
2024/01/10 06:22:50;;;;;;;14.85;7.60;;;-3.10;99.90;;;;;;4973750;28;20483;-63
2024/01/10 06:25:16;;;;;;;14.70;7.97;;;-3.10;99.90;;;;;;4987743;28;20140;-63
2024/01/10 06:27:42;;;;;;;18.05;9.35;;;-3.10;99.90;;;;;;5005040;28;20050;-63
2024/01/10 06:30:09;;;;;;;17.98;9.90;;;-3.10;99.90;;;;;;4990777;28;20038;-63
2024/01/10 06:32:35;;;;;;;17.25;9.65;;;-3.10;99.90;;;;;;5000837;28;20104;-64
2024/01/10 06:35:01;;;;;;;17.88;9.70;;;-3.10;99.90;;;;;;4986124;28;20077;-63
2024/01/10 06:37:28;;;;;;;19.52;9.95;;;-3.20;99.90;;;;;;4986098;28;20054;-63
2024/01/10 06:39:54;;;;;;;18.83;9.80;;;-3.20;99.80;;;;;;5003802;28;20077;-63
2024/01/10 06:42:20;;;;;;;15.82;9.35;;;-3.30;98.50;;;;;;5002765;28;20507;-63
2024/01/10 06:44:45;;;;;;;17.27;9.63;;;-3.30;96.70;;;;;;5003387;28;20045;-63
2024/01/10 06:47:11;;;;;;;21.45;10.30;;;-3.30;97.50;;;;;;4985802;28;20049;-63
2024/01/10 06:49:38;;;;;;;14.90;8.55;;;-3.30;99.30;;;;;;4970237;28;20097;-63
2024/01/10 06:52:06;;;;;;;17.00;8.77;;;-3.30;97.70;;;;;;5005315;28;20086;-62
2024/01/10 06:54:32;;;;;;;17.02;8.90;;;-3.40;95.40;;;;;;5003030;28;20038;-62
2024/01/10 06:56:58;;;;;;;18.45;9.27;;;-3.40;95.40;;;;;;5003461;28;20088;-63
2024/01/10 06:59:24;;;;;;;18.88;9.18;;;-3.40;94.80;;;;;;5002205;28;20084;-63
2024/01/10 07:01:53;;;;;;;19.02;9.40;;;-3.40;93.50;;;;;;5000377;28;20365;-63
2024/01/10 07:04:22;;;;;;;17.83;9.25;;;-3.40;92.50;;;;;;5000850;28;20581;-63
2024/01/10 07:06:48;;;;;;;19.23;9.77;;;-3.40;93.30;;;;;;5003742;28;20050;-63
2024/01/10 07:09:19;;;;;;;21.52;11.20;;;-3.40;93.40;;;;;;4989445;28;20052;-63
2024/01/10 07:11:47;;;;;;;18.45;9.68;;;-3.40;94.70;;;;;;4976192;28;20053;-62
2024/01/10 07:14:14;;;;;;;23.98;11.35;;;-3.40;94.90;;;;;;4985788;28;20064;-63
2024/01/10 07:16:42;;;;;;;25.08;11.82;;;-3.50;96.30;;;;;;5002410;28;20503;-63
2024/01/10 07:19:14;;;;;;;25.85;13.38;;;-3.50;97.80;;;;;;4985439;28;20038;-63
2024/01/10 07:21:42;;;;;;;26.17;13.48;;;-3.50;99.90;;;;;;5003030;28;20045;-63
2024/01/10 07:24:09;;;;;;;21.98;11.52;;;-3.50;99.90;;;;;;4985127;28;20514;-62
2024/01/10 07:26:36;;;;;;;25.42;12.27;;;-3.50;99.90;;;;;;5002488;28;20054;-63
2024/01/10 07:29:02;;;;;;;25.15;11.35;;;-3.60;99.90;;;;;;4982469;28;20041;-63
2024/01/10 07:31:29;;;;;;;27.95;13.20;;;-3.60;99.90;;;;;;4985114;28;20049;-63
2024/01/10 07:33:56;;;;;;;27.85;12.73;;;-3.60;99.90;;;;;;4999309;28;20499;-63
2024/01/10 07:36:24;;;;;;;26.38;13.35;;;-3.60;99.90;;;;;;5003305;28;20050;-63
2024/01/10 07:38:49;;;;;;;25.23;12.80;;;-3.60;99.90;;;;;;5001711;28;20415;-63
2024/01/10 07:41:15;;;;;;;26.85;13.05;;;-3.60;99.90;;;;;;5003370;28;20041;-63
2024/01/10 07:43:41;;;;;;;27.35;13.57;;;-3.60;99.90;;;;;;4985460;28;20060;-63
2024/01/10 07:46:07;;;;;;;24.50;12.75;;;-3.70;99.90;;;;;;5001194;28;20426;-63
2024/01/10 07:48:32;;;;;;;29.05;13.55;;;-3.70;99.90;;;;;;5003989;28;20038;-63
2024/01/10 07:50:58;;;;;;;26.92;13.45;;;-3.70;99.90;;;;;;4983418;28;20050;-63
2024/01/10 07:53:26;;;;;;;23.45;12.68;;;-3.60;99.90;;;;;;4986088;28;20052;-65
2024/01/10 07:55:52;;;;;;;25.35;12.70;;;-3.60;99.90;;;;;;5000808;28;20048;-64
2024/01/10 07:58:18;;;;;;;25.65;11.48;;;-3.60;99.90;;;;;;4984257;28;20049;-64
2024/01/10 08:00:45;;;;;;;26.52;12.82;;;-3.60;99.90;;;;;;4999992;28;20076;-65
2024/01/10 08:03:10;;;;;;;28.40;13.88;;;-3.60;99.90;;;;;;5001956;28;20058;-64
2024/01/10 08:05:36;;;;;;;29.25;12.88;;;-3.60;99.90;;;;;;4984628;28;20041;-64
2024/01/10 08:08:03;;;;;;;29.20;14.25;;;-3.60;99.90;;;;;;4983166;28;20794;-64
2024/01/10 08:10:29;;;;;;;28.50;12.75;;;-3.60;99.90;;;;;;5003114;28;20092;-64
2024/01/10 08:12:56;;;;;;;29.75;13.52;;;-3.60;99.90;;;;;;5001349;28;20049;-64
2024/01/10 08:15:22;;;;;;;28.42;14.55;;;-3.60;99.90;;;;;;5003502;28;20053;-64
2024/01/10 08:17:49;;;;;;;28.98;12.88;;;-3.60;99.90;;;;;;5001316;28;20395;-64
2024/01/10 08:20:19;;;;;;;28.73;14.15;;;-3.60;99.90;;;;;;5002805;28;20049;-64
2024/01/10 08:22:45;;;;;;;25.35;12.35;;;-3.60;99.90;;;;;;5003168;28;20046;-64
2024/01/10 08:25:12;;;;;;;25.73;12.43;;;-3.60;99.90;;;;;;5000458;28;20293;-63
2024/01/10 08:27:38;;;;;;;26.92;12.35;;;-3.60;99.90;;;;;;5003493;28;20058;-64
2024/01/10 08:30:05;;;;;;;24.75;12.13;;;-3.60;99.90;;;;;;4995888;28;20361;-64
2024/01/10 08:32:32;;;;;;;28.35;13.25;;;-3.50;99.90;;;;;;5003172;28;20081;-64
2024/01/10 08:34:57;;;;;;;20.83;10.88;;;-3.50;99.90;;;;;;4981447;28;20042;-64
2024/01/10 08:37:23;;;;;;;26.33;11.95;;;-3.40;99.90;;;;;;4985660;28;20049;-64
2024/01/10 08:39:50;;;;;;;23.33;11.65;;;-3.40;99.90;;;;;;5001326;28;20045;-64
2024/01/10 08:42:16;;;;;;;18.17;9.52;;;-3.30;99.90;;;;;;5002402;28;20057;-64
2024/01/10 08:44:41;;;;;;;22.13;10.43;;;-3.30;99.90;;;;;;5002732;28;20495;-64
2024/01/10 08:47:07;;;;;;;21.60;10.75;;;-3.20;99.90;;;;;;5001112;28;20578;-64
2024/01/10 08:49:33;;;;;;;21.23;10.15;;;-3.20;99.90;;;;;;5001492;28;20045;-65
2024/01/10 08:51:59;;;;;;;19.98;10.63;;;-3.10;99.90;;;;;;4982737;28;20056;-64
2024/01/10 08:54:25;;;;;;;20.05;9.13;;;-3.10;99.90;;;;;;5002224;28;20099;-64
2024/01/10 08:56:50;;;;;;;18.25;9.50;;;-3.10;99.90;;;;;;5002002;28;20042;-64
2024/01/10 08:59:16;;;;;;;18.33;8.85;;;-3.00;98.50;;;;;;5002018;28;20052;-64
2024/01/10 09:01:42;;;;;;;16.83;8.68;;;-2.90;96.40;;;;;;5002148;28;20506;-65
2024/01/10 09:04:08;;;;;;;20.77;9.73;;;-2.90;94.00;;;;;;4975479;28;20034;-65
2024/01/10 09:06:35;;;;;;;22.13;10.88;;;-2.80;91.00;;;;;;5002654;28;20079;-65
2024/01/10 09:09:01;;;;;;;21.45;8.65;;;-2.80;88.50;;;;;;4983127;28;20518;-64
2024/01/10 09:11:27;;;;;;;23.30;11.05;;;-2.70;84.20;;;;;;4983642;28;20049;-65
2024/01/10 09:13:53;;;;;;;18.17;8.70;;;-2.70;83.20;;;;;;5001308;28;20046;-64
2024/01/10 09:16:19;;;;;;;20.67;9.70;;;-2.70;79.10;;;;;;4980030;28;20124;-65
2024/01/10 09:18:45;;;;;;;19.77;9.35;;;-2.60;76.80;;;;;;5002440;28;20427;-65
2024/01/10 09:21:11;;;;;;;22.67;9.15;;;-2.60;75.80;;;;;;5000845;28;20065;-64
2024/01/10 09:23:37;;;;;;;20.73;10.15;;;-2.50;77.70;;;;;;5002168;28;20046;-64
2024/01/10 09:26:03;;;;;;;19.23;9.55;;;-2.40;77.50;;;;;;5000006;28;20061;-65
2024/01/10 09:28:29;;;;;;;18.50;9.35;;;-2.40;74.90;;;;;;5002963;28;20108;-65
2024/01/10 09:30:55;;;;;;;18.88;9.80;;;-2.30;70.10;;;;;;5000596;28;20118;-65
2024/01/10 09:33:22;;;;;;;21.58;9.98;;;-2.30;65.70;;;;;;4983915;28;20572;-64
2024/01/10 09:35:48;;;;;;;20.05;9.50;;;-2.30;67.60;;;;;;5001253;28;20867;-64
2024/01/10 09:38:14;;;;;;;19.33;10.05;;;-2.20;67.70;;;;;;5001983;28;20045;-64
2024/01/10 09:40:40;;;;;;;17.40;8.00;;;-2.20;60.50;;;;;;5001791;28;20049;-64
2024/01/10 09:43:07;;;;;;;15.15;8.85;;;-2.10;55.60;;;;;;5003469;28;20121;-64
2024/01/10 09:45:36;;;;;;;15.73;8.13;;;-2.10;54.50;;;;;;4972609;28;20104;-64
2024/01/10 09:48:02;;;;;;;18.05;8.45;;;-2.00;53.80;;;;;;5004567;28;20053;-64
2024/01/10 09:50:31;;;;;;;17.75;9.13;;;-2.00;55.10;;;;;;5006199;28;20068;-64
2024/01/10 09:53:08;;;;;;;18.42;8.60;;;-2.00;48.10;;;;;;5003667;28;20350;-64
2024/01/10 09:55:38;;;;;;;18.45;9.20;;;-1.90;44.00;;;;;;4997258;28;20727;-64
2024/01/10 09:58:08;;;;;;;19.00;8.95;;;-1.90;37.80;;;;;;5006130;28;20124;-64
2024/01/10 10:00:36;;;;;;;16.85;8.98;;;-1.90;38.60;;;;;;5003476;28;20499;-65
2024/01/10 10:03:04;;;;;;;19.67;9.57;;;-1.80;40.50;;;;;;5006255;28;20265;-65
2024/01/10 10:05:30;;;;;;;18.52;8.98;;;-1.80;40.30;;;;;;5003567;28;20391;-64
2024/01/10 10:07:57;;;;;;;18.17;8.32;;;-1.80;38.20;;;;;;5006090;28;20041;-64
2024/01/10 10:10:27;;;;;;;24.27;9.32;;;-1.70;39.60;;;;;;5003870;28;20045;-65
2024/01/10 10:12:56;;;;;;;17.73;8.90;;;-1.70;38.60;;;;;;4996523;28;20050;-64
2024/01/10 10:15:26;;;;;;;16.80;8.50;;;-1.70;36.50;;;;;;4980984;28;20068;-64
2024/01/10 10:17:53;;;;;;;17.33;9.10;;;-1.60;34.20;;;;;;4982511;28;20067;-65
2024/01/10 10:20:24;;;;;;;17.55;8.82;;;-1.60;29.70;;;;;;4998193;28;20133;-65
2024/01/10 10:23:06;;;;;;;18.05;8.68;;;-1.60;28.10;;;;;;5001288;28;20050;-65
2024/01/10 10:25:34;;;;;;;15.25;8.35;;;-1.50;26.40;;;;;;5002071;28;20291;-65
2024/01/10 10:28:02;;;;;;;17.40;8.55;;;-1.50;27.10;;;;;;5004595;28;20500;-65
2024/01/10 10:30:30;;;;;;;20.15;9.52;;;-1.50;22.70;;;;;;5003122;28;20372;-64
2024/01/10 10:32:56;;;;;;;20.23;10.02;;;-1.50;22.70;;;;;;5005491;28;20343;-65
2024/01/10 10:35:22;;;;;;;15.07;8.05;;;-1.50;21.90;;;;;;4998152;28;20084;-65
2024/01/10 10:37:52;;;;;;;17.98;9.90;;;-1.50;20.50;;;;;;5004845;28;20491;-65
2024/01/10 10:40:19;;;;;;;20.52;9.45;;;-1.40;12.40;;;;;;4985341;28;20539;-65
2024/01/10 10:42:46;;;;;;;16.35;7.93;;;-1.40;11.30;;;;;;4988699;28;20046;-65
2024/01/10 10:45:19;;;;;;;17.15;8.35;;;-1.40;10.50;;;;;;5001200;28;20500;-65
2024/01/10 10:47:49;;;;;;;17.13;8.35;;;-1.30;6.80;;;;;;5002783;28;20087;-65
2024/01/10 10:50:27;;;;;;;19.85;9.40;;;-1.30;4.50;;;;;;5003966;28;20121;-65
2024/01/10 10:52:55;;;;;;;18.52;9.23;;;-1.20;7.70;;;;;;5001475;28;20057;-65
2024/01/10 10:55:23;;;;;;;13.95;7.00;;;-1.20;4.30;;;;;;5003504;28;20069;-65
2024/01/10 10:57:49;;;;;;;18.55;8.90;;;-1.20;6.50;;;;;;4984122;28;20076;-64
2024/01/10 11:00:20;;;;;;;19.25;9.13;;;-1.10;1.00;;;;;;5003037;28;20401;-65
2024/01/10 11:02:46;;;;;;;17.88;9.05;;;-1.10;2.90;;;;;;4984833;28;20042;-65
2024/01/10 11:05:12;;;;;;;15.77;8.15;;;-1.00;3.10;;;;;;5002497;28;20459;-65
2024/01/10 11:07:43;;;;;;;15.45;8.75;;;-1.00;1.00;;;;;;4984432;28;20484;-65
2024/01/10 11:10:19;;;;;;;15.75;8.00;;;-1.00;1.00;;;;;;5002695;28;20050;-65
2024/01/10 11:13:22;;;;;;;18.10;8.13;;;-1.00;1.00;;;;;;5004098;28;20053;-64
2024/01/10 11:16:15;;;;;;;14.38;8.70;;;-0.90;1.00;;;;;;5003424;28;20088;-63
2024/01/10 11:19:05;;;;;;;17.67;8.57;;;-0.80;1.00;;;;;;5001364;28;20532;-64
2024/01/10 11:21:59;;;;;;;18.02;9.57;;;-0.80;1.00;;;;;;4998107;28;20140;-64
2024/01/10 11:24:25;;;;;;;16.40;8.05;;;-0.70;1.00;;;;;;5003500;28;20403;-63
2024/01/10 11:27:05;;;;;;;18.30;8.80;;;-0.80;1.00;;;;;;4993576;28;20066;-64
2024/01/10 11:29:31;;;;;;;;;;;-0.70;1.00;;;;;;5001142;28;20088;-64
2024/01/10 11:31:58;;;;;;;16.17;8.65;;;-0.70;1.00;;;;;;5001899;28;19968;-64
2024/01/10 11:34:27;;;;;;;19.73;9.00;;;-0.70;1.00;;;;;;5001605;28;20046;-64
2024/01/10 11:37:19;;;;;;;20.73;8.35;;;-0.70;1.00;;;;;;5002428;28;20034;-64
2024/01/10 11:39:45;;;;;;;15.90;8.35;;;-0.70;1.00;;;;;;4980575;28;20058;-64
2024/01/10 11:42:12;;;;;;;20.63;10.20;;;-0.70;1.00;;;;;;4985920;28;20136;-64
2024/01/10 11:44:51;;;;;;;18.52;8.77;;;-0.70;1.00;;;;;;5001760;28;20056;-64
2024/01/10 11:47:18;;;;;;;19.48;9.68;;;-0.60;1.00;;;;;;4986206;28;20048;-64
2024/01/10 11:49:56;;;;;;;19.60;9.25;;;-0.70;1.00;;;;;;4978766;28;20117;-64
2024/01/10 11:52:23;;;;;;;22.65;10.38;;;-0.60;1.00;;;;;;4981081;28;20542;-64
2024/01/10 11:55:08;;;;;;;16.50;9.35;;;-0.60;1.00;;;;;;5003635;28;20045;-64
2024/01/10 11:57:34;;;;;;;18.85;9.70;;;-0.70;1.00;;;;;;4983741;28;20133;-64
2024/01/10 12:00:00;;;;;;;18.20;9.13;;;-0.70;1.00;;;;;;5001504;28;20148;-64
2024/01/10 12:02:26;;;;;;;19.45;10.18;;;-0.60;1.00;;;;;;4996993;28;20046;-64
2024/01/10 12:04:53;;;;;;;17.42;9.38;;;-0.60;1.00;;;;;;5003401;28;20041;-64
2024/01/10 12:07:21;;;;;;;18.55;9.93;;;-0.60;1.00;;;;;;4987734;28;20454;-64
2024/01/10 12:09:47;;;;;;;20.85;9.68;;;-0.60;1.00;;;;;;5001714;28;20041;-64
2024/01/10 12:12:14;;;;;;;17.65;8.93;;;-0.60;1.00;;;;;;5000759;28;20046;-64
2024/01/10 12:14:41;;;;;;;19.60;9.77;;;-0.60;1.00;;;;;;4977973;28;20295;-64
2024/01/10 12:17:08;;;;;;;20.70;10.02;;;-0.60;1.00;;;;;;5002443;28;20507;-64
2024/01/10 12:19:37;;;;;;;19.73;10.15;;;-0.60;1.00;;;;;;5002875;28;20049;-64
2024/01/10 12:22:05;;;;;;;20.48;9.68;;;-0.50;1.00;;;;;;5001024;28;20030;-64
2024/01/10 12:24:31;;;;;;;16.40;10.00;;;-0.60;1.00;;;;;;5001459;28;20487;-64
2024/01/10 12:26:58;;;;;;;14.48;9.02;;;-0.60;1.00;;;;;;5000898;28;20060;-64
2024/01/10 12:29:26;;;;;;;19.00;9.40;;;-0.50;1.00;;;;;;5003208;28;20046;-63
2024/01/10 12:31:53;;;;;;;19.33;9.98;;;-0.50;2.80;;;;;;5000207;28;20442;-64
2024/01/10 12:34:21;;;;;;;17.90;9.25;;;-0.50;1.00;;;;;;5003134;28;20041;-64